Time;durP1;ratioP1;P1;durP2;ratioP2;P2;SDS_P1;SDS_P2;PMS_P1;PMS_P2;Temp;Humidity;BMP_temperature;BMP_pressure;BME280_temperature;BME280_humidity;BME280_pressure;Samples;Min_cycle;Max_cycle;Signal;HPM_P1;HPM_P2
2021/12/07 00:01:34;;;;;;;;;;;;;;;2.03;100.00;100471.63;5038903;28;19917;-80
2021/12/07 00:03:59;;;;;;;;;;;;;;;2.10;100.00;100472.94;5039056;28;19920;-78
2021/12/07 00:06:25;;;;;;;;;;;;;;;2.18;100.00;100471.72;5038288;28;20375;-81
2021/12/07 00:08:54;;;;;;;;;;;;;;;2.28;100.00;100474.06;5038416;28;19917;-80
2021/12/07 00:11:21;;;;;;;;;;;;;;;2.32;100.00;100478.69;5038316;28;20157;-79
2021/12/07 00:13:46;;;;;;;;;;;;;;;2.36;100.00;100486.66;5038948;28;19923;-80
2021/12/07 00:16:13;;;;;;;;;;;;;;;2.40;100.00;100478.28;5038294;28;19917;-80
2021/12/07 00:18:41;;;;;;;;;;;;;;;2.64;100.00;100484.06;5038468;28;20086;-77
2021/12/07 00:21:07;;;;;;;;;;;;;;;2.87;100.00;100485.50;5038666;28;19917;-78
2021/12/07 00:23:33;;;;;;;;;;;;;;;3.23;100.00;100484.22;5038674;28;20317;-79
2021/12/07 00:25:58;;;;;;;;;;;;;;;3.54;100.00;100487.72;5038555;28;19917;-81
2021/12/07 00:28:25;;;;;;;;;;;;;;;3.76;100.00;100489.88;5038390;28;20011;-80
2021/12/07 00:30:51;;;;;;;;;;;;;;;3.86;100.00;100494.78;5038131;28;20003;-81
2021/12/07 00:35:52;;;;;;;;;;;;;;;4.02;100.00;100493.06;5056061;28;19917;-81
2021/12/07 00:38:19;;;;;;;;;;;;;;;4.07;100.00;100497.72;5021419;28;19928;-81
2021/12/07 00:40:45;;;;;;;;;;;;;;;4.02;100.00;100496.53;5037618;28;19923;-81
2021/12/07 00:43:11;;;;;;;;;;;;;;;4.06;100.00;100505.44;5055132;28;19917;-78
2021/12/07 00:45:41;;;;;;;;;;;;;;;3.95;100.00;100510.06;5037996;28;19923;-81
2021/12/07 00:48:16;;;;;;;;;;;;;;;4.05;100.00;100514.06;5037785;28;19917;-82
2021/12/07 00:50:47;;;;;;;;;;;;;;;3.98;100.00;100510.22;5037950;28;19924;-80
2021/12/07 00:53:12;;;;;;;;;;;;;;;4.03;100.00;100515.69;5037805;28;19971;-80
2021/12/07 00:55:39;;;;;;;;;;;;;;;4.07;100.00;100515.97;5037835;28;19916;-81
2021/12/07 00:58:13;;;;;;;;;;;;;;;4.11;100.00;100532.66;5037871;28;19920;-82
2021/12/07 01:00:39;;;;;;;;;;;;;;;3.96;100.00;100537.88;5037721;28;19916;-81
2021/12/07 01:03:05;;;;;;;;;;;;;;;4.02;100.00;100537.34;5037680;28;19963;-81
2021/12/07 01:05:34;;;;;;;;;;;;;;;4.04;100.00;100552.28;5037687;28;20336;-80
2021/12/07 01:26:58;;;;;;;;;;;;;;;3.98;100.00;100611.84;5054279;28;19943;-83
2021/12/07 01:29:27;;;;;;;;;;;;;;;3.91;100.00;100615.78;5036788;28;19917;-79
2021/12/07 01:39:37;;;;;;;;;;;;;;;3.82;100.00;100630.84;5054418;28;19917;-80
2021/12/07 01:45:17;;;;;;;;;;;;;;;3.95;100.00;100645.53;4982734;28;20036;-82
2021/12/07 01:48:03;;;;;;;;;;;;;;;4.06;100.00;100648.78;5054099;28;20007;-82
2021/12/07 01:50:43;;;;;;;;;;;;;;;4.02;100.00;100645.06;5036026;28;19916;-80
2021/12/07 01:53:19;;;;;;;;;;;;;;;3.94;100.00;100652.44;5022034;28;19924;-81
2021/12/07 02:01:15;;;;;;;;;;;;;;;3.98;100.00;100678.66;5022778;28;19942;-81
2021/12/07 02:03:40;;;;;;;;;;;;;;;3.98;100.00;100671.75;5036782;28;19920;-78
2021/12/07 02:06:06;;;;;;;;;;;;;;;3.82;100.00;100664.72;5036200;28;19923;-80
2021/12/07 02:08:33;;;;;;;;;;;;;;;3.68;100.00;100673.41;5036097;28;19916;-81
2021/12/07 02:11:01;;;;;;;;;;;;;;;3.52;100.00;100682.00;5035939;28;19975;-80
2021/12/07 02:15:56;;;;;;;;;;;;;;;3.31;100.00;100684.16;5053977;28;20047;-79
2021/12/07 02:18:24;;;;;;;;;;;;;;;3.40;100.00;100690.84;5038871;28;19986;-79
2021/12/07 02:20:50;;;;;;;;;;;;;;;3.38;100.00;100688.94;5039770;28;19920;-80
2021/12/07 02:23:16;;;;;;;;;;;;;;;3.43;100.00;100687.53;5040716;28;19917;-81
2021/12/07 02:25:41;;;;;;;;;;;;;;;3.41;100.00;100690.03;5039650;28;20011;-78
2021/12/07 02:28:14;;;;;;;;;;;;;;;3.30;100.00;100695.41;5039944;28;19924;-80
2021/12/07 02:30:41;;;;;;;;;;;;;;;3.36;100.00;100693.19;5040224;28;20023;-80
2021/12/07 02:33:07;;;;;;;;;;;;;;;3.26;100.00;100691.69;5040241;28;20011;-81
2021/12/07 02:35:32;;;;;;;;;;;;;;;3.34;100.00;100699.97;5040115;28;20395;-80
2021/12/07 02:37:59;;;;;;;;;;;;;;;3.29;100.00;100714.41;5039919;28;19983;-78
2021/12/07 02:40:25;;;;;;;;;;;;;;;3.32;100.00;100720.69;5023676;28;20473;-79
2021/12/07 02:42:50;;;;;;;;;;;;;;;3.48;100.00;100725.19;5016721;28;20321;-79
2021/12/07 02:45:16;;;;;;;;;;;;;;;3.65;100.00;100740.94;5017595;28;19952;-81
2021/12/07 02:47:44;;;;;;;;;;;;;;;3.80;100.00;100734.06;5020428;28;19917;-78
2021/12/07 02:50:10;;;;;;;;;;;;;;;3.86;100.00;100738.75;5017040;28;19970;-81
2021/12/07 02:52:35;;;;;;;;;;;;;;;3.85;100.00;100731.75;5016658;28;20007;-81
2021/12/07 02:55:02;;;;;;;;;;;;;;;3.75;100.00;100733.78;5016501;28;20040;-80
2021/12/07 02:57:27;;;;;;;;;;;;;;;3.56;100.00;100730.88;5017540;28;19917;-81
2021/12/07 03:00:05;;;;;;;;;;;;;;;3.39;100.00;100730.69;5016688;28;19917;-81
2021/12/07 03:02:35;;;;;;;;;;;;;;;3.29;100.00;100737.81;5016641;28;19940;-80
2021/12/07 03:05:33;;;;;;;;;;;;;;;3.17;100.00;100732.72;5016703;28;19953;-81
2021/12/07 03:26:36;;;;;;;;;;;;;;;2.79;100.00;100760.69;5015309;28;20332;-79
2021/12/07 03:29:03;;;;;;;;;;;;;;;2.77;100.00;100770.09;5015203;28;19917;-81
2021/12/07 03:31:30;;;;;;;;;;;;;;;2.78;100.00;100765.78;5016034;28;19920;-80
2021/12/07 03:33:57;;;;;;;;;;;;;;;2.84;100.00;100767.09;5015498;28;19917;-81
2021/12/07 03:36:22;;;;;;;;;;;;;;;2.81;100.00;100771.19;5015896;28;19928;-81
2021/12/07 03:38:49;;;;;;;;;;;;;;;2.93;100.00;100769.38;5018673;28;19942;-77
2021/12/07 03:41:16;;;;;;;;;;;;;;;2.95;100.00;100766.88;5018796;28;19917;-81
2021/12/07 03:43:41;;;;;;;;;;;;;;;2.87;100.00;100775.09;5015756;28;20499;-78
2021/12/07 03:46:07;;;;;;;;;;;;;;;2.91;100.00;100780.50;5016105;28;19953;-81
2021/12/07 03:48:45;;;;;;;;;;;;;;;2.91;100.00;100788.31;5016265;28;20348;-82
2021/12/07 03:51:11;;;;;;;;;;;;;;;2.96;100.00;100779.09;5015994;28;19917;-81
2021/12/07 03:53:37;;;;;;;;;;;;;;;2.93;100.00;100778.91;5015984;28;19924;-79
2021/12/07 03:56:03;;;;;;;;;;;;;;;2.93;100.00;100787.59;5015677;28;19917;-80
2021/12/07 03:58:31;;;;;;;;;;;;;;;2.77;100.00;100785.69;5015133;28;19953;-80
2021/12/07 04:00:56;;;;;;;;;;;;;;;2.75;100.00;100782.09;5015606;28;20453;-78
2021/12/07 04:03:21;;;;;;;;;;;;;;;2.74;100.00;100775.09;5015659;28;19921;-80
2021/12/07 04:05:49;;;;;;;;;;;;;;;2.83;100.00;100783.50;5015337;28;19949;-81
2021/12/07 04:08:21;;;;;;;;;;;;;;;2.71;100.00;100782.69;5015608;28;19917;-80
2021/12/07 04:10:46;;;;;;;;;;;;;;;2.67;100.00;100792.00;5015731;28;20007;-82
2021/12/07 04:13:12;;;;;;;;;;;;;;;2.71;100.00;100798.28;5015682;28;20000;-79
2021/12/07 04:15:37;;;;;;;;;;;;;;;2.88;100.00;100795.09;4999169;28;19921;-81
2021/12/07 04:18:09;;;;;;;;;;;;;;;3.04;100.00;100799.59;5014987;28;20476;-81
2021/12/07 04:20:36;;;;;;;;;;;;;;;3.38;100.00;100811.28;5015104;28;19921;-81
2021/12/07 04:23:04;;;;;;;;;;;;;;;3.45;100.00;100818.72;5015225;28;19917;-80
2021/12/07 04:25:30;;;;;;;;;;;;;;;3.50;100.00;100804.28;5014899;28;19917;-81
2021/12/07 04:28:04;;;;;;;;;;;;;;;3.39;100.00;100802.69;5015195;28;19917;-81
2021/12/07 04:30:30;;;;;;;;;;;;;;;3.17;100.00;100813.41;5015883;28;19964;-79
2021/12/07 04:32:56;;;;;;;;;;;;;;;3.07;100.00;100814.50;5015323;28;20356;-80
2021/12/07 04:35:22;;;;;;;;;;;;;;;3.01;100.00;100816.72;5015360;28;19921;-81
2021/12/07 04:37:52;;;;;;;;;;;;;;;2.92;100.00;100822.22;5014543;28;19917;-81
2021/12/07 04:40:19;;;;;;;;;;;;;;;2.84;100.00;100819.13;5014359;28;20016;-79
2021/12/07 04:42:45;;;;;;;;;;;;;;;2.75;100.00;100823.72;5014868;28;19917;-81
2021/12/07 04:45:20;;;;;;;;;;;;;;;2.68;100.00;100824.09;5015037;28;19921;-81
2021/12/07 04:59:00;;;;;;;;;;;;;;;2.20;100.00;100831.22;5015323;28;19928;-81
2021/12/07 05:01:25;;;;;;;;;;;;;;;2.19;100.00;100828.53;5014861;28;19913;-81
2021/12/07 05:03:53;;;;;;;;;;;;;;;2.13;100.00;100824.72;5014486;28;20008;-81
2021/12/07 05:06:29;;;;;;;;;;;;;;;2.04;100.00;100829.28;4998972;28;20400;-80
2021/12/07 05:09:20;;;;;;;;;;;;;;;2.01;100.00;100831.66;5014362;28;20004;-82
2021/12/07 05:12:05;;;;;;;;;;;;;;;2.01;100.00;100841.16;5015186;28;19917;-79
2021/12/07 05:14:33;;;;;;;;;;;;;;;1.88;100.00;100842.91;5014629;28;19917;-81
2021/12/07 05:38:24;;;;;;;;;;;;;;;1.73;100.00;100885.94;5013351;28;20051;-80
2021/12/07 05:40:49;;;;;;;;;;;;;;;1.69;100.00;100892.59;5012747;28;19964;-81
2021/12/07 05:43:14;;;;;;;;;;;;;;;1.67;100.00;100891.59;5013723;28;19997;-79
2021/12/07 05:45:41;;;;;;;;;;;;;;;1.62;100.00;100892.94;4997276;28;19925;-81
2021/12/07 05:48:09;;;;;;;;;;;;;;;1.55;100.00;100891.59;5000253;28;19918;-81
2021/12/07 05:50:35;;;;;;;;;;;;;;;1.55;100.00;100885.50;4993954;28;19960;-80
2021/12/07 05:53:01;;;;;;;;;;;;;;;1.63;100.00;100888.66;4994022;28;20186;-80
2021/12/07 05:55:27;;;;;;;;;;;;;;;1.53;100.00;100879.31;4994131;28;20273;-79
2021/12/07 05:57:58;;;;;;;;;;;;;;;1.54;100.00;100881.09;4993826;28;19917;-78
2021/12/07 06:00:27;;;;;;;;;;;;;;;1.47;100.00;100865.88;4994010;28;19932;-80
2021/12/07 06:02:56;;;;;;;;;;;;;;;1.46;100.00;100859.81;5006595;28;19956;-78
2021/12/07 06:05:22;;;;;;;;;;;;;;;1.51;100.00;100863.63;5013552;28;20269;-79
2021/12/07 06:07:48;;;;;;;;;;;;;;;1.45;100.00;100867.47;5013730;28;19917;-79
2021/12/07 06:10:13;;;;;;;;;;;;;;;1.38;100.00;100872.22;5013058;28;19918;-79
2021/12/07 06:12:39;;;;;;;;;;;;;;;1.31;100.00;100874.25;5013296;28;19921;-78
2021/12/07 06:15:04;;;;;;;;;;;;;;;1.25;100.00;100877.28;5017633;28;19917;-79
2021/12/07 06:17:34;;;;;;;;;;;;;;;1.23;100.00;100882.38;5015222;28;19944;-80
2021/12/07 06:19:59;;;;;;;;;;;;;;;1.20;100.00;100886.44;5013500;28;19921;-80
2021/12/07 06:22:25;;;;;;;;;;;;;;;1.14;100.00;100884.28;5014829;28;19917;-79
2021/12/07 06:24:53;;;;;;;;;;;;;;;1.10;100.00;100879.63;5013391;28;19989;-80
2021/12/07 06:27:19;;;;;;;;;;;;;;;1.11;100.00;100886.63;5013564;28;19924;-79
2021/12/07 06:29:45;;;;;;;;;;;;;;;1.11;100.00;100890.94;5013315;28;19918;-80
2021/12/07 06:32:10;;;;;;;;;;;;;;;1.07;100.00;100875.16;5013490;28;20252;-82
2021/12/07 06:34:35;;;;;;;;;;;;;;;1.04;100.00;100885.28;5012854;28;19956;-79
2021/12/07 06:37:01;;;;;;;;;;;;;;;1.00;100.00;100888.44;5012533;28;19921;-79
2021/12/07 06:39:29;;;;;;;;;;;;;;;1.02;100.00;100886.84;5013027;28;19960;-79
2021/12/07 06:41:54;;;;;;;;;;;;;;;0.99;100.00;100885.72;5011723;28;20460;-80
2021/12/07 06:44:20;;;;;;;;;;;;;;;0.93;100.00;100885.25;5006162;28;19917;-77
2021/12/07 06:46:48;;;;;;;;;;;;;;;0.92;100.00;100886.03;4992615;28;19917;-77
2021/12/07 06:49:15;;;;;;;;;;;;;;;1.01;100.00;100889.31;5002646;28;19917;-79
2021/12/07 06:51:40;;;;;;;;;;;;;;;0.94;100.00;100887.09;5012608;28;19924;-80
2021/12/07 06:54:05;;;;;;;;;;;;;;;0.94;100.00;100880.19;4995613;28;19926;-79
2021/12/07 06:56:31;;;;;;;;;;;;;;;1.02;100.00;100879.06;4995307;28;19921;-79
2021/12/07 06:58:57;;;;;;;;;;;;;;;1.17;100.00;100886.22;5010777;28;19921;-76
2021/12/07 07:01:22;;;;;;;;;;;;;;;1.33;100.00;100889.13;5006405;28;19932;-77
2021/12/07 07:03:47;;;;;;;;;;;;;;;1.40;100.00;100895.69;4997318;28;19921;-77
2021/12/07 07:06:13;;;;;;;;;;;;;;;1.38;100.00;100887.78;4997736;28;20266;-77
2021/12/07 07:08:38;;;;;;;;;;;;;;;1.38;100.00;100892.06;4999152;28;20296;-79
2021/12/07 07:11:04;;;;;;;;;;;;;;;1.31;100.00;100890.72;5014628;28;19960;-75
2021/12/07 07:13:30;;;;;;;;;;;;;;;1.32;100.00;100905.50;5015655;28;19929;-75
2021/12/07 07:15:55;;;;;;;;;;;;;;;1.29;100.00;100902.69;5014854;28;20071;-75
2021/12/07 07:18:26;;;;;;;;;;;;;;;1.28;100.00;100898.28;5012478;28;19921;-75
2021/12/07 07:20:52;;;;;;;;;;;;;;;1.29;100.00;100900.09;4994700;28;20330;-77
2021/12/07 07:23:17;;;;;;;;;;;;;;;1.30;100.00;100903.56;5004413;28;19924;-79
2021/12/07 07:25:42;;;;;;;;;;;;;;;1.30;100.00;100885.41;5014522;28;19917;-78
2021/12/07 07:28:09;;;;;;;;;;;;;;;1.30;100.00;100896.69;5015187;28;19924;-77
2021/12/07 07:30:34;;;;;;;;;;;;;;;1.34;100.00;100885.75;5014942;28;19924;-77
2021/12/07 07:32:59;;;;;;;;;;;;;;;1.33;100.00;100881.34;5014539;28;19917;-76
2021/12/07 07:35:25;;;;;;;;;;;;;;;1.36;100.00;100863.41;4998381;28;19976;-77
2021/12/07 07:37:52;;;;;;;;;;;;;;;1.43;100.00;100869.97;5014137;28;19917;-76
2021/12/07 07:40:19;;;;;;;;;;;;;;;1.48;100.00;100870.28;4997688;28;19917;-78
2021/12/07 07:42:45;;;;;;;;;;;;;;;1.37;100.00;100874.69;4995514;28;20005;-77
2021/12/07 07:45:10;;;;;;;;;;;;;;;1.34;100.00;100875.38;4995338;28;19941;-77
2021/12/07 07:47:37;;;;;;;;;;;;;;;1.35;100.00;100877.19;4995135;28;19940;-77
2021/12/07 07:50:03;;;;;;;;;;;;;;;1.33;100.00;100873.56;4993863;28;19922;-77
2021/12/07 07:52:29;;;;;;;;;;;;;;;1.34;100.00;100875.38;4994630;28;19987;-76
2021/12/07 07:54:54;;;;;;;;;;;;;;;1.37;100.00;100878.19;4978419;28;20374;-77
2021/12/07 07:57:19;;;;;;;;;;;;;;;1.45;100.00;100875.25;4995673;28;19918;-76
2021/12/07 07:59:44;;;;;;;;;;;;;;;1.48;100.00;100873.78;4995585;28;20262;-77
2021/12/07 08:02:10;;;;;;;;;;;;;;;1.52;100.00;100886.16;4979356;28;19925;-76
2021/12/07 08:04:35;;;;;;;;;;;;;;;1.65;100.00;100887.06;4994875;28;20203;-77
2021/12/07 08:07:00;;;;;;;;;;;;;;;1.63;100.00;100886.06;4994170;28;19960;-76
2021/12/07 08:09:27;;;;;;;;;;;;;;;1.62;100.00;100887.75;4994558;28;19918;-77
2021/12/07 08:11:52;;;;;;;;;;;;;;;1.63;100.00;100883.47;4995055;28;19964;-77
2021/12/07 08:14:17;;;;;;;;;;;;;;;1.68;100.00;100890.81;4993901;28;19918;-77
2021/12/07 08:16:43;;;;;;;;;;;;;;;1.75;100.00;100885.25;4994165;28;20000;-77
2021/12/07 08:19:10;;;;;;;;;;;;;;;1.75;100.00;100881.75;4978900;28;20012;-77
2021/12/07 08:21:35;;;;;;;;;;;;;;;1.79;100.00;100887.28;4995198;28;20292;-75
2021/12/07 08:24:00;;;;;;;;;;;;;;;1.86;100.00;100891.19;4994241;28;20217;-77
2021/12/07 08:26:26;;;;;;;;;;;;;;;1.93;100.00;100900.34;4995005;28;19972;-76
2021/12/07 08:28:54;;;;;;;;;;;;;;;2.03;100.00;100897.59;4995022;28;19953;-77
2021/12/07 08:31:20;;;;;;;;;;;;;;;2.07;100.00;100884.03;4995142;28;20393;-76
2021/12/07 08:33:45;;;;;;;;;;;;;;;2.15;100.00;100893.25;4994653;28;20005;-78
2021/12/07 08:36:11;;;;;;;;;;;;;;;2.21;100.00;100891.91;4994674;28;19949;-77
2021/12/07 08:38:36;;;;;;;;;;;;;;;2.26;100.00;100890.53;4995048;28;19925;-77
2021/12/07 08:41:02;;;;;;;;;;;;;;;2.26;100.00;100895.72;4993986;28;19921;-77
2021/12/07 08:43:28;;;;;;;;;;;;;;;2.31;100.00;100891.75;4994523;28;19925;-77
2021/12/07 08:45:54;;;;;;;;;;;;;;;2.38;100.00;100886.19;4993715;28;19971;-78
2021/12/07 08:48:20;;;;;;;;;;;;;;;2.49;100.00;100889.53;4994042;28;19945;-76
2021/12/07 08:50:46;;;;;;;;;;;;;;;2.68;100.00;100889.09;4993579;28;19972;-77
2021/12/07 08:53:13;;;;;;;;;;;;;;;2.85;100.00;100872.91;4977948;28;19972;-77
2021/12/07 09:01:09;;;;;;;;;;;;;;;2.97;100.00;100880.66;4995330;28;19959;-77
2021/12/07 09:03:35;;;;;;;;;;;;;;;2.99;100.00;100880.75;4993860;28;19917;-77
2021/12/07 09:06:00;;;;;;;;;;;;;;;3.00;100.00;100883.47;4994055;28;19918;-77
2021/12/07 09:08:28;;;;;;;;;;;;;;;3.14;100.00;100896.47;4994050;28;19940;-77
2021/12/07 09:10:53;;;;;;;;;;;;;;;3.15;100.00;100886.16;4993546;28;20329;-75
2021/12/07 09:13:20;;;;;;;;;;;;;;;3.08;100.00;100881.38;4994049;28;19921;-76
2021/12/07 09:15:45;;;;;;;;;;;;;;;3.12;100.00;100885.94;4993652;28;19917;-77
2021/12/07 09:18:12;;;;;;;;;;;;;;;3.07;100.00;100882.16;4993622;28;19918;-77
2021/12/07 09:20:37;;;;;;;;;;;;;;;3.08;100.00;100870.03;4990953;28;19917;-77
2021/12/07 09:23:02;;;;;;;;;;;;;;;3.01;100.00;100879.16;4977155;28;19922;-78
2021/12/07 09:25:28;;;;;;;;;;;;;;;3.01;100.00;100876.53;4993875;28;19918;-77
2021/12/07 09:27:54;;;;;;;;;;;;;;;3.02;100.00;100862.75;4992961;28;19953;-77
2021/12/07 09:30:20;;;;;;;;;;;;;;;3.00;100.00;100875.66;4990581;28;19956;-77
2021/12/07 09:32:48;;;;;;;;;;;;;;;2.99;100.00;100873.84;4993825;28;20246;-77
2021/12/07 09:35:14;;;;;;;;;;;;;;;3.00;100.00;100872.16;4993334;28;20346;-77
2021/12/07 09:37:39;;;;;;;;;;;;;;;2.98;100.00;100876.34;4992953;28;19971;-77
2021/12/07 09:40:09;;;;;;;;;;;;;;;2.98;100.00;100881.53;4992398;28;19918;-77
2021/12/07 09:42:35;;;;;;;;;;;;;;;2.99;100.00;100885.97;4993229;28;19924;-77
2021/12/07 09:45:00;;;;;;;;;;;;;;;2.98;100.00;100886.75;4992962;28;20028;-77
2021/12/07 09:47:29;;;;;;;;;;;;;;;3.02;100.00;100893.97;4993310;28;19925;-78
2021/12/07 09:49:55;;;;;;;;;;;;;;;3.04;100.00;100892.34;4993426;28;20004;-78
2021/12/07 09:52:21;;;;;;;;;;;;;;;3.05;100.00;100896.78;4993147;28;20346;-77
2021/12/07 09:54:47;;;;;;;;;;;;;;;3.07;100.00;100902.97;4993200;28;20004;-78
2021/12/07 09:57:15;;;;;;;;;;;;;;;3.10;100.00;100903.19;4993217;28;20000;-78
2021/12/07 09:59:40;;;;;;;;;;;;;;;3.14;100.00;100909.47;4992210;28;19917;-77
2021/12/07 10:02:07;;;;;;;;;;;;;;;3.19;100.00;100908.09;4991747;28;20013;-78
2021/12/07 10:04:33;;;;;;;;;;;;;;;3.22;100.00;100914.41;4993218;28;19965;-77
2021/12/07 10:06:59;;;;;;;;;;;;;;;3.30;100.00;100906.22;4993385;28;19918;-77
2021/12/07 10:09:25;;;;;;;;;;;;;;;3.34;100.00;100909.13;4977196;28;19922;-75
2021/12/07 10:11:54;;;;;;;;;;;;;;;3.39;100.00;100901.63;4992097;28;20380;-77
2021/12/07 10:14:19;;;;;;;;;;;;;;;3.46;100.00;100908.13;4993172;28;19922;-77
2021/12/07 10:16:46;;;;;;;;;;;;;;;3.56;100.00;100898.41;4993194;28;19925;-78
2021/12/07 10:19:25;;;;;;;;;;;;;;;3.59;100.00;100902.91;4992866;28;19957;-77
2021/12/07 10:21:58;;;;;;;;;;;;;;;3.68;100.00;100892.16;4992932;28;19953;-77
2021/12/07 10:24:27;;;;;;;;;;;;;;;3.73;100.00;100882.97;4992646;28;19917;-78
2021/12/07 10:26:52;;;;;;;;;;;;;;;3.78;100.00;100873.72;4976288;28;19922;-76
2021/12/07 10:29:20;;;;;;;;;;;;;;;3.85;100.00;100869.81;4992112;28;20380;-76
2021/12/07 10:32:01;;;;;;;;;;;;;;;3.94;100.00;100867.78;4992076;28;19918;-77
2021/12/07 10:34:29;;;;;;;;;;;;;;;3.96;100.00;100855.75;4991806;28;19921;-76
2021/12/07 10:37:04;;;;;;;;;;;;;;;3.99;100.00;100852.44;4991957;28;19926;-76
2021/12/07 10:39:34;;;;;;;;;;;;;;;3.95;100.00;100854.84;4994199;28;19928;-76
2021/12/07 10:42:00;;;;;;;;;;;;;;;3.99;100.00;100835.09;4995658;28;20378;-74
2021/12/07 10:44:27;;;;;;;;;;;;;;;4.00;100.00;100831.69;4995653;28;19925;-77
2021/12/07 10:46:53;;;;;;;;;;;;;;;4.06;100.00;100832.06;4996597;28;19917;-77
2021/12/07 10:49:23;;;;;;;;;;;;;;;4.04;100.00;100823.25;4995914;28;19928;-78
2021/12/07 10:52:06;;;;;;;;;;;;;;;4.05;100.00;100829.38;4995635;28;19956;-77
2021/12/07 10:54:35;;;;;;;;;;;;;;;4.03;100.00;100824.06;4995882;28;20369;-77
2021/12/07 10:57:02;;;;;;;;;;;;;;;4.03;100.00;100826.66;4995417;28;20511;-77
2021/12/07 10:59:30;;;;;;;;;;;;;;;4.01;100.00;100822.16;4995435;28;19914;-77
2021/12/07 11:01:55;;;;;;;;;;;;;;;3.97;100.00;100830.59;4995349;28;19924;-78
2021/12/07 11:04:28;;;;;;;;;;;;;;;3.96;100.00;100824.47;4979277;28;20338;-78
2021/12/07 11:07:06;;;;;;;;;;;;;;;4.01;100.00;100822.16;4995527;28;20365;-77
2021/12/07 11:09:42;;;;;;;;;;;;;;;4.06;100.00;100819.03;4995524;28;19917;-78
2021/12/07 11:12:09;;;;;;;;;;;;;;;4.09;100.00;100820.94;4995314;28;19924;-78
2021/12/07 11:14:57;;;;;;;;;;;;;;;4.12;100.00;100813.31;4995376;28;20011;-76
2021/12/07 11:17:25;;;;;;;;;;;;;;;4.05;100.00;100806.81;4995790;28;19917;-76
2021/12/07 11:19:52;;;;;;;;;;;;;;;4.08;100.00;100813.91;4995856;28;19993;-77
2021/12/07 11:22:18;;;;;;;;;;;;;;;4.06;100.00;100808.63;4996275;28;20498;-77
2021/12/07 11:24:44;;;;;;;;;;;;;;;4.05;100.00;100808.53;4995657;28;19960;-77
2021/12/07 11:30:00;;;;;;;;;;;;;;;4.01;100.00;100786.59;4997496;28;19924;-76
2021/12/07 11:32:26;;;;;;;;;;;;;;;3.92;100.00;100771.28;4995885;28;19917;-77
2021/12/07 11:34:52;;;;;;;;;;;;;;;3.90;100.00;100764.16;4995622;28;19918;-76
2021/12/07 11:37:22;;;;;;;;;;;;;;;3.88;100.00;100764.06;4995735;28;20318;-76
2021/12/07 11:39:53;;;;;;;;;;;;;;;3.84;100.00;100761.19;4998522;28;20341;-77
2021/12/07 11:42:22;;;;;;;;;;;;;;;3.92;100.00;100758.25;5018343;28;20469;-78
2021/12/07 11:45:00;;;;;;;;;;;;;;;3.92;100.00;100742.63;5018042;28;20004;-77
2021/12/07 11:47:34;;;;;;;;;;;;;;;3.88;100.00;100743.25;5018379;28;19988;-78
2021/12/07 11:50:18;;;;;;;;;;;;;;;3.97;100.00;100731.59;5017657;28;19920;-77
2021/12/07 11:52:45;;;;;;;;;;;;;;;4.02;100.00;100727.56;5017971;28;19917;-77
2021/12/07 11:55:10;;;;;;;;;;;;;;;4.12;100.00;100712.56;5018124;28;19917;-77
2021/12/07 11:57:37;;;;;;;;;;;;;;;4.20;100.00;100704.31;5017857;28;19917;-78
2021/12/07 12:00:03;;;;;;;;;;;;;;;4.22;100.00;100700.09;5018134;28;19995;-77
2021/12/07 12:02:29;;;;;;;;;;;;;;;4.32;100.00;100700.72;5018231;28;19917;-78
2021/12/07 12:04:54;;;;;;;;;;;;;;;4.35;100.00;100699.09;5000815;28;20470;-77
2021/12/07 12:07:19;;;;;;;;;;;;;;;4.35;100.00;100676.53;5016831;28;19917;-77
2021/12/07 12:09:49;;;;;;;;;;;;;;;4.41;100.00;100669.06;5016496;28;19924;-78
2021/12/07 12:12:14;;;;;;;;;;;;;;;4.44;100.00;100663.13;5016031;28;19924;-77
2021/12/07 12:14:39;;;;;;;;;;;;;;;4.51;100.00;100664.38;5017832;28;19917;-77
2021/12/07 12:17:09;;;;;;;;;;;;;;;4.57;100.00;100656.88;5017742;28;19971;-78
2021/12/07 12:19:38;;;;;;;;;;;;;;;4.53;100.00;100654.94;5017829;28;19917;-77
2021/12/07 12:22:21;;;;;;;;;;;;;;;4.60;100.00;100644.94;5035559;28;19975;-76
2021/12/07 12:24:48;;;;;;;;;;;;;;;4.62;100.00;100639.81;5017327;28;20342;-77
2021/12/07 12:27:19;;;;;;;;;;;;;;;4.63;100.00;100633.75;5017515;28;19917;-77
2021/12/07 12:29:47;;;;;;;;;;;;;;;4.60;100.00;100625.75;5017449;28;20371;-75
2021/12/07 12:32:13;;;;;;;;;;;;;;;4.59;100.00;100631.81;5017416;28;20256;-77
2021/12/07 12:34:49;;;;;;;;;;;;;;;4.57;100.00;100618.69;5017665;28;19921;-78
2021/12/07 12:37:19;;;;;;;;;;;;;;;4.61;100.00;100615.41;5016994;28;19917;-78
2021/12/07 12:39:52;;;;;;;;;;;;;;;4.68;100.00;100606.25;5016829;28;19952;-76
2021/12/07 12:42:24;;;;;;;;;;;;;;;4.65;100.00;100590.44;5017087;28;19956;-77
2021/12/07 12:44:55;;;;;;;;;;;;;;;4.65;100.00;100573.06;5017446;28;19924;-78
2021/12/07 12:47:24;;;;;;;;;;;;;;;4.63;100.00;100555.53;5017397;28;19920;-76
2021/12/07 12:49:49;;;;;;;;;;;;;;;4.62;100.00;100564.19;5016904;28;19921;-78
2021/12/07 12:52:15;;;;;;;;;;;;;;;4.65;100.00;100575.66;5017538;28;20309;-77
2021/12/07 12:54:42;;;;;;;;;;;;;;;4.67;100.00;100544.44;5017264;28;19917;-77
2021/12/07 12:57:12;;;;;;;;;;;;;;;4.66;100.00;100540.03;5017455;28;19956;-77
2021/12/07 12:59:39;;;;;;;;;;;;;;;4.62;100.00;100554.63;5017177;28;19999;-77
2021/12/07 13:02:04;;;;;;;;;;;;;;;4.53;100.00;100541.09;5016471;28;19917;-77
2021/12/07 13:04:31;;;;;;;;;;;;;;;4.48;100.00;100539.94;5016875;28;19958;-77
2021/12/07 13:07:05;;;;;;;;;;;;;;;4.46;100.00;100537.25;5016895;28;19924;-76
2021/12/07 13:09:39;;;;;;;;;;;;;;;4.41;100.00;100535.19;5016834;28;19912;-76
2021/12/07 13:12:07;;;;;;;;;;;;;;;4.43;100.00;100530.97;5017056;28;19996;-77
2021/12/07 13:14:35;;;;;;;;;;;;;;;4.43;100.00;100515.34;5016697;28;19917;-76
2021/12/07 13:17:00;;;;;;;;;;;;;;;4.35;100.00;100508.78;5016345;28;19917;-78
2021/12/07 13:19:28;;;;;;;;;;;;;;;4.34;100.00;100502.69;5034613;28;20011;-77
2021/12/07 13:21:54;;;;;;;;;;;;;;;4.35;100.00;100482.72;5016788;28;19920;-78
2021/12/07 13:24:39;;;;;;;;;;;;;;;4.29;100.00;100491.09;5016869;28;20368;-76
2021/12/07 13:27:11;;;;;;;;;;;;;;;4.24;100.00;100484.72;5015897;28;19913;-77
2021/12/07 13:29:37;;;;;;;;;;;;;;;4.26;100.00;100481.41;5016553;28;20003;-77
2021/12/07 13:32:03;;;;;;;;;;;;;;;4.19;100.00;100486.19;5015895;28;19921;-76
2021/12/07 13:34:32;;;;;;;;;;;;;;;4.19;100.00;100468.81;5016185;28;19917;-76
2021/12/07 13:37:05;;;;;;;;;;;;;;;4.16;100.00;100459.94;5015615;28;20298;-77
2021/12/07 13:39:36;;;;;;;;;;;;;;;4.17;100.00;100462.66;5016135;28;19924;-75
2021/12/07 13:42:02;;;;;;;;;;;;;;;4.14;100.00;100465.97;5016185;28;20540;-76
2021/12/07 13:44:28;;;;;;;;;;;;;;;4.14;100.00;100457.25;5016535;28;19979;-77
2021/12/07 13:47:00;;;;;;;;;;;;;;;4.07;100.00;100445.59;5016273;28;19921;-77
2021/12/07 13:49:26;;;;;;;;;;;;;;;4.07;100.00;100447.28;5015815;28;19917;-77
2021/12/07 13:51:52;;;;;;;;;;;;;;;4.05;100.00;100436.78;5015741;28;19924;-77
2021/12/07 13:54:19;;;;;;;;;;;;;;;4.08;100.00;100433.47;5016449;28;20272;-76
2021/12/07 13:56:45;;;;;;;;;;;;;;;4.04;100.00;100421.06;5016277;28;20033;-77
2021/12/07 13:59:13;;;;;;;;;;;;;;;4.02;100.00;100410.56;5016650;28;20341;-76
2021/12/07 14:01:39;;;;;;;;;;;;;;;4.08;100.00;100410.00;5015972;28;19913;-77
2021/12/07 14:04:05;;;;;;;;;;;;;;;4.11;100.00;100404.97;5016289;28;19921;-76
2021/12/07 14:06:31;;;;;;;;;;;;;;;4.07;100.00;100397.78;5016262;28;19913;-76
2021/12/07 14:09:08;;;;;;;;;;;;;;;4.07;100.00;100401.31;5016145;28;19924;-77
2021/12/07 14:11:37;;;;;;;;;;;;;;;4.06;100.00;100402.13;5016550;28;19928;-76
2021/12/07 14:14:06;;;;;;;;;;;;;;;4.04;100.00;100403.75;5019375;28;19987;-75
2021/12/07 14:16:31;;;;;;;;;;;;;;;4.08;100.00;100407.41;5020171;28;19921;-76
2021/12/07 14:18:56;;;;;;;;;;;;;;;4.07;100.00;100405.59;5019487;28;20441;-75